Ana Sayfa
METAR-TAF:

METAR-TAF

Havaalanları :

Alma, Michigan, Amerika Birleşik Devletleri

Enlem: 43-19-19N, Boylam: 084-41-16W, yükseklik: 229 m

Güncel hava durumu gözlemi

Rapor saat 15:35 UTC de 18 dakika önce yapıldı.
Rüzgar batı/kuzeybatıdan 19 kt ve 24 kt'a kadar ani rüzgarlar
Sıcaklık -5°C
Nem 49%
Basınç 1012 hPa
Görüş mesafesi: 16.1 km
3200 ft yükseklikte çok bulutlu

METAR: KAMN 281535Z AUTO 29019G24KT 10SM OVC032 M05/M14 A2987 RMK AO2 T10511136

Saat: 10:53 (15:53 UTC)


TAF: eksik

4.000'den fazla havaalanı için hava durumu gözlemleri ve tahminleri (METAR ve TAF raporları).

Kullanılabilir istasyonlar harita üzerinde sarı ve kırmızı noktalarla gösterilir.

İstasyonun adını görmek için fareyi noktanın üzerinde gezdirin.

Sonrasında hava gözlem ve tahminlerini görmek için tıklayın.

Haritayı değiştirmek için: yaklaştırmak için siyah artı işaretli yeşil düğmeye ve uzaklaştırmak için de eksi işaretli düğmeye hızla tıklayın; bitişik haritalar için yeşil okları kullanın.


METAR-TAF: